sensor_id;sensor_type;location;lat;lon;timestamp;temperature;humidity
10538;DHT22;5317;49.048;8.468;2023-03-03T00:01:30;9.50;52.30
10538;DHT22;5317;49.048;8.468;2023-03-03T00:03:58;9.50;52.30
10538;DHT22;5317;49.048;8.468;2023-03-03T00:06:25;9.50;52.40
10538;DHT22;5317;49.048;8.468;2023-03-03T00:08:53;9.50;52.40
10538;DHT22;5317;49.048;8.468;2023-03-03T00:11:20;9.40;52.40
10538;DHT22;5317;49.048;8.468;2023-03-03T00:13:50;9.30;52.50
10538;DHT22;5317;49.048;8.468;2023-03-03T00:16:22;9.30;52.60
10538;DHT22;5317;49.048;8.468;2023-03-03T00:18:50;9.20;52.60
10538;DHT22;5317;49.048;8.468;2023-03-03T00:21:28;9.20;52.80
10538;DHT22;5317;49.048;8.468;2023-03-03T00:24:16;9.20;53.00
10538;DHT22;5317;49.048;8.468;2023-03-03T00:26:46;9.10;52.90
10538;DHT22;5317;49.048;8.468;2023-03-03T00:29:30;9.10;52.80
10538;DHT22;5317;49.048;8.468;2023-03-03T00:32:20;9.00;52.80
10538;DHT22;5317;49.048;8.468;2023-03-03T00:34:48;8.90;52.90
10538;DHT22;5317;49.048;8.468;2023-03-03T00:37:34;8.90;53.10
10538;DHT22;5317;49.048;8.468;2023-03-03T00:40:23;8.90;53.30
10538;DHT22;5317;49.048;8.468;2023-03-03T00:42:52;8.80;53.50
10538;DHT22;5317;49.048;8.468;2023-03-03T00:45:27;8.80;53.30
10538;DHT22;5317;49.048;8.468;2023-03-03T00:47:54;8.70;53.60
10538;DHT22;5317;49.048;8.468;2023-03-03T00:50:32;8.70;53.90
10538;DHT22;5317;49.048;8.468;2023-03-03T00:53:05;8.70;54.00
10538;DHT22;5317;49.048;8.468;2023-03-03T00:55:34;8.60;53.80
10538;DHT22;5317;49.048;8.468;2023-03-03T00:58:01;8.60;53.80
10538;DHT22;5317;49.048;8.468;2023-03-03T01:00:28;8.60;53.80
10538;DHT22;5317;49.048;8.468;2023-03-03T01:02:55;8.50;53.90
10538;DHT22;5317;49.048;8.468;2023-03-03T01:05:22;8.50;54.00
10538;DHT22;5317;49.048;8.468;2023-03-03T01:07:49;8.40;54.00
10538;DHT22;5317;49.048;8.468;2023-03-03T01:10:15;8.40;53.90
10538;DHT22;5317;49.048;8.468;2023-03-03T01:12:44;8.40;54.00
10538;DHT22;5317;49.048;8.468;2023-03-03T01:15:12;8.30;54.30
10538;DHT22;5317;49.048;8.468;2023-03-03T01:17:40;8.30;54.60
10538;DHT22;5317;49.048;8.468;2023-03-03T01:20:08;8.30;54.60
10538;DHT22;5317;49.048;8.468;2023-03-03T01:22:35;8.20;54.60
10538;DHT22;5317;49.048;8.468;2023-03-03T01:25:03;8.40;54.70
10538;DHT22;5317;49.048;8.468;2023-03-03T01:27:30;8.20;54.40
10538;DHT22;5317;49.048;8.468;2023-03-03T01:29:59;8.10;54.30
10538;DHT22;5317;49.048;8.468;2023-03-03T01:32:26;8.10;54.60
10538;DHT22;5317;49.048;8.468;2023-03-03T01:34:54;8.10;54.60
10538;DHT22;5317;49.048;8.468;2023-03-03T01:37:21;8.10;54.60
10538;DHT22;5317;49.048;8.468;2023-03-03T01:39:49;8.00;54.40
10538;DHT22;5317;49.048;8.468;2023-03-03T01:42:16;7.90;54.50
10538;DHT22;5317;49.048;8.468;2023-03-03T01:44:44;7.90;55.00
10538;DHT22;5317;49.048;8.468;2023-03-03T01:47:13;7.90;55.00
10538;DHT22;5317;49.048;8.468;2023-03-03T01:49:45;7.90;55.10
10538;DHT22;5317;49.048;8.468;2023-03-03T01:52:19;7.90;55.50
10538;DHT22;5317;49.048;8.468;2023-03-03T01:54:50;7.90;55.50
10538;DHT22;5317;49.048;8.468;2023-03-03T01:57:23;7.80;55.40
10538;DHT22;5317;49.048;8.468;2023-03-03T01:59:52;7.80;55.50
10538;DHT22;5317;49.048;8.468;2023-03-03T02:02:23;7.70;55.50
10538;DHT22;5317;49.048;8.468;2023-03-03T02:04:50;7.70;55.40
10538;DHT22;5317;49.048;8.468;2023-03-03T02:07:19;7.70;55.50
10538;DHT22;5317;49.048;8.468;2023-03-03T02:09:52;7.60;55.50
10538;DHT22;5317;49.048;8.468;2023-03-03T02:12:25;7.60;55.40
10538;DHT22;5317;49.048;8.468;2023-03-03T02:14:53;7.60;55.40
10538;DHT22;5317;49.048;8.468;2023-03-03T02:17:22;7.50;55.20
10538;DHT22;5317;49.048;8.468;2023-03-03T02:19:52;7.50;55.20
10538;DHT22;5317;49.048;8.468;2023-03-03T02:22:24;7.50;55.50
10538;DHT22;5317;49.048;8.468;2023-03-03T02:24:56;7.50;55.70
10538;DHT22;5317;49.048;8.468;2023-03-03T02:27:27;7.50;55.40
10538;DHT22;5317;49.048;8.468;2023-03-03T02:29:55;7.50;55.50
10538;DHT22;5317;49.048;8.468;2023-03-03T02:32:23;7.50;55.50
10538;DHT22;5317;49.048;8.468;2023-03-03T02:34:50;7.40;55.30
10538;DHT22;5317;49.048;8.468;2023-03-03T02:37:19;7.40;55.30
10538;DHT22;5317;49.048;8.468;2023-03-03T02:39:46;7.40;55.30
10538;DHT22;5317;49.048;8.468;2023-03-03T02:42:15;7.40;55.30
10538;DHT22;5317;49.048;8.468;2023-03-03T02:44:45;7.30;55.10
10538;DHT22;5317;49.048;8.468;2023-03-03T02:47:12;7.30;55.20
10538;DHT22;5317;49.048;8.468;2023-03-03T02:49:41;7.20;55.20
10538;DHT22;5317;49.048;8.468;2023-03-03T02:52:10;7.20;55.20
10538;DHT22;5317;49.048;8.468;2023-03-03T02:54:39;7.20;55.20
10538;DHT22;5317;49.048;8.468;2023-03-03T02:57:06;7.20;55.20
10538;DHT22;5317;49.048;8.468;2023-03-03T02:59:33;7.20;55.30
10538;DHT22;5317;49.048;8.468;2023-03-03T03:02:01;7.20;55.40
10538;DHT22;5317;49.048;8.468;2023-03-03T03:04:28;7.10;55.50
10538;DHT22;5317;49.048;8.468;2023-03-03T03:06:55;7.10;55.50
10538;DHT22;5317;49.048;8.468;2023-03-03T03:09:23;7.00;55.50
10538;DHT22;5317;49.048;8.468;2023-03-03T03:11:50;7.00;55.60
10538;DHT22;5317;49.048;8.468;2023-03-03T03:14:17;7.00;55.50
10538;DHT22;5317;49.048;8.468;2023-03-03T03:16:44;7.00;55.60
10538;DHT22;5317;49.048;8.468;2023-03-03T03:19:12;6.90;55.60
10538;DHT22;5317;49.048;8.468;2023-03-03T03:21:39;6.90;55.70
10538;DHT22;5317;49.048;8.468;2023-03-03T03:24:06;6.90;56.10
10538;DHT22;5317;49.048;8.468;2023-03-03T03:26:33;6.80;56.00
10538;DHT22;5317;49.048;8.468;2023-03-03T03:29:00;6.80;56.00
10538;DHT22;5317;49.048;8.468;2023-03-03T03:31:27;6.80;56.00
10538;DHT22;5317;49.048;8.468;2023-03-03T03:33:54;6.80;56.30
10538;DHT22;5317;49.048;8.468;2023-03-03T03:36:22;6.80;56.40
10538;DHT22;5317;49.048;8.468;2023-03-03T03:38:49;6.80;56.30
10538;DHT22;5317;49.048;8.468;2023-03-03T03:41:16;6.70;56.10
10538;DHT22;5317;49.048;8.468;2023-03-03T03:43:43;6.70;56.00
10538;DHT22;5317;49.048;8.468;2023-03-03T03:46:10;6.70;56.20
10538;DHT22;5317;49.048;8.468;2023-03-03T03:48:37;6.70;56.30
10538;DHT22;5317;49.048;8.468;2023-03-03T03:51:04;6.70;56.10
10538;DHT22;5317;49.048;8.468;2023-03-03T03:53:33;6.60;56.20
10538;DHT22;5317;49.048;8.468;2023-03-03T03:56:02;6.60;55.90
10538;DHT22;5317;49.048;8.468;2023-03-03T03:58:29;6.60;56.10
10538;DHT22;5317;49.048;8.468;2023-03-03T04:01:01;6.60;56.30
10538;DHT22;5317;49.048;8.468;2023-03-03T04:03:28;6.50;56.30
10538;DHT22;5317;49.048;8.468;2023-03-03T04:05:55;6.50;56.20
10538;DHT22;5317;49.048;8.468;2023-03-03T04:08:22;6.50;56.30
10538;DHT22;5317;49.048;8.468;2023-03-03T04:10:50;6.50;56.80
10538;DHT22;5317;49.048;8.468;2023-03-03T04:13:17;6.50;56.50
10538;DHT22;5317;49.048;8.468;2023-03-03T04:15:44;6.50;56.30
10538;DHT22;5317;49.048;8.468;2023-03-03T04:18:11;6.50;56.00
10538;DHT22;5317;49.048;8.468;2023-03-03T04:20:39;6.40;55.90
10538;DHT22;5317;49.048;8.468;2023-03-03T04:23:06;6.40;55.90
10538;DHT22;5317;49.048;8.468;2023-03-03T04:25:32;6.40;55.80
10538;DHT22;5317;49.048;8.468;2023-03-03T04:28:01;6.40;55.80
10538;DHT22;5317;49.048;8.468;2023-03-03T04:30:28;6.40;55.70
10538;DHT22;5317;49.048;8.468;2023-03-03T04:32:54;6.30;55.70
10538;DHT22;5317;49.048;8.468;2023-03-03T04:35:21;6.30;55.70
10538;DHT22;5317;49.048;8.468;2023-03-03T04:37:48;6.30;55.80
10538;DHT22;5317;49.048;8.468;2023-03-03T04:40:15;6.30;55.90
10538;DHT22;5317;49.048;8.468;2023-03-03T04:42:42;6.30;56.00
10538;DHT22;5317;49.048;8.468;2023-03-03T04:45:11;6.20;56.00
10538;DHT22;5317;49.048;8.468;2023-03-03T04:47:38;6.20;56.30
10538;DHT22;5317;49.048;8.468;2023-03-03T04:50:06;6.20;56.40
10538;DHT22;5317;49.048;8.468;2023-03-03T04:52:34;6.20;56.50
10538;DHT22;5317;49.048;8.468;2023-03-03T04:55:00;6.20;56.50
10538;DHT22;5317;49.048;8.468;2023-03-03T04:57:27;6.10;57.00
10538;DHT22;5317;49.048;8.468;2023-03-03T04:59:54;6.10;56.60
10538;DHT22;5317;49.048;8.468;2023-03-03T05:02:22;6.00;56.70
10538;DHT22;5317;49.048;8.468;2023-03-03T05:04:49;6.00;56.70
10538;DHT22;5317;49.048;8.468;2023-03-03T05:07:16;6.00;56.70
10538;DHT22;5317;49.048;8.468;2023-03-03T05:09:44;6.00;57.00
10538;DHT22;5317;49.048;8.468;2023-03-03T05:12:11;5.90;56.80
10538;DHT22;5317;49.048;8.468;2023-03-03T05:14:38;5.90;56.70
10538;DHT22;5317;49.048;8.468;2023-03-03T05:17:05;5.90;56.70
10538;DHT22;5317;49.048;8.468;2023-03-03T05:19:33;5.90;56.80
10538;DHT22;5317;49.048;8.468;2023-03-03T05:22:00;5.90;56.80
10538;DHT22;5317;49.048;8.468;2023-03-03T05:24:27;5.90;56.70
10538;DHT22;5317;49.048;8.468;2023-03-03T05:26:54;5.90;56.30
10538;DHT22;5317;49.048;8.468;2023-03-03T05:29:21;5.90;56.50
10538;DHT22;5317;49.048;8.468;2023-03-03T05:31:48;5.90;56.60
10538;DHT22;5317;49.048;8.468;2023-03-03T05:34:15;5.90;56.70
10538;DHT22;5317;49.048;8.468;2023-03-03T05:36:43;5.90;56.70
10538;DHT22;5317;49.048;8.468;2023-03-03T05:39:12;5.90;56.70
10538;DHT22;5317;49.048;8.468;2023-03-03T05:41:39;5.90;56.70
10538;DHT22;5317;49.048;8.468;2023-03-03T05:44:06;5.90;56.70
10538;DHT22;5317;49.048;8.468;2023-03-03T05:46:33;6.00;56.90
10538;DHT22;5317;49.048;8.468;2023-03-03T05:49:00;6.00;56.70
10538;DHT22;5317;49.048;8.468;2023-03-03T05:51:27;5.90;56.70
10538;DHT22;5317;49.048;8.468;2023-03-03T05:53:55;5.90;56.70
10538;DHT22;5317;49.048;8.468;2023-03-03T05:56:22;6.00;56.90
10538;DHT22;5317;49.048;8.468;2023-03-03T05:58:49;6.00;56.90
10538;DHT22;5317;49.048;8.468;2023-03-03T06:01:16;6.00;57.10
10538;DHT22;5317;49.048;8.468;2023-03-03T06:03:43;6.00;57.30
10538;DHT22;5317;49.048;8.468;2023-03-03T06:06:10;6.00;57.40
10538;DHT22;5317;49.048;8.468;2023-03-03T06:08:38;6.00;57.20
10538;DHT22;5317;49.048;8.468;2023-03-03T06:11:06;6.10;57.10
10538;DHT22;5317;49.048;8.468;2023-03-03T06:13:33;6.10;57.10
10538;DHT22;5317;49.048;8.468;2023-03-03T06:16:00;6.10;57.10
10538;DHT22;5317;49.048;8.468;2023-03-03T06:18:27;6.10;57.50
10538;DHT22;5317;49.048;8.468;2023-03-03T06:20:54;6.10;57.50
10538;DHT22;5317;49.048;8.468;2023-03-03T06:23:21;6.10;57.50
10538;DHT22;5317;49.048;8.468;2023-03-03T06:25:48;6.20;57.50
10538;DHT22;5317;49.048;8.468;2023-03-03T06:28:16;6.20;57.50
10538;DHT22;5317;49.048;8.468;2023-03-03T06:30:43;6.20;57.60
10538;DHT22;5317;49.048;8.468;2023-03-03T06:33:10;6.20;57.60
10538;DHT22;5317;49.048;8.468;2023-03-03T06:35:37;6.20;57.50
10538;DHT22;5317;49.048;8.468;2023-03-03T06:38:04;6.30;57.70
10538;DHT22;5317;49.048;8.468;2023-03-03T06:40:31;6.20;57.80
10538;DHT22;5317;49.048;8.468;2023-03-03T06:42:58;6.30;58.00
10538;DHT22;5317;49.048;8.468;2023-03-03T06:45:28;6.30;58.00
10538;DHT22;5317;49.048;8.468;2023-03-03T06:47:55;6.30;58.20
10538;DHT22;5317;49.048;8.468;2023-03-03T06:50:22;6.30;58.30
10538;DHT22;5317;49.048;8.468;2023-03-03T06:52:49;6.30;58.30
10538;DHT22;5317;49.048;8.468;2023-03-03T06:55:22;6.30;58.30
10538;DHT22;5317;49.048;8.468;2023-03-03T06:57:48;6.40;58.40
10538;DHT22;5317;49.048;8.468;2023-03-03T07:00:18;6.40;58.70
10538;DHT22;5317;49.048;8.468;2023-03-03T07:02:57;6.40;58.40
10538;DHT22;5317;49.048;8.468;2023-03-03T07:05:26;6.50;58.40
10538;DHT22;5317;49.048;8.468;2023-03-03T07:07:55;6.60;58.50
10538;DHT22;5317;49.048;8.468;2023-03-03T07:10:23;6.60;58.60
10538;DHT22;5317;49.048;8.468;2023-03-03T07:12:51;6.60;58.20
10538;DHT22;5317;49.048;8.468;2023-03-03T07:15:21;6.70;58.40
10538;DHT22;5317;49.048;8.468;2023-03-03T07:17:55;6.70;58.30
10538;DHT22;5317;49.048;8.468;2023-03-03T07:20:28;6.70;58.30
10538;DHT22;5317;49.048;8.468;2023-03-03T07:22:56;6.80;58.20
10538;DHT22;5317;49.048;8.468;2023-03-03T07:25:29;6.80;58.40
10538;DHT22;5317;49.048;8.468;2023-03-03T07:27:59;6.90;58.40
10538;DHT22;5317;49.048;8.468;2023-03-03T07:30:33;6.90;58.50
10538;DHT22;5317;49.048;8.468;2023-03-03T07:33:01;6.90;58.50
10538;DHT22;5317;49.048;8.468;2023-03-03T07:35:46;7.00;58.50
10538;DHT22;5317;49.048;8.468;2023-03-03T07:38:34;7.10;58.60
10538;DHT22;5317;49.048;8.468;2023-03-03T07:41:04;7.10;58.90
10538;DHT22;5317;49.048;8.468;2023-03-03T07:43:36;7.10;58.70
10538;DHT22;5317;49.048;8.468;2023-03-03T07:46:19;7.20;58.60
10538;DHT22;5317;49.048;8.468;2023-03-03T07:48:50;7.30;58.60
10538;DHT22;5317;49.048;8.468;2023-03-03T07:51:21;7.30;58.40
10538;DHT22;5317;49.048;8.468;2023-03-03T07:53:50;7.30;58.40
10538;DHT22;5317;49.048;8.468;2023-03-03T07:56:27;7.40;58.80
10538;DHT22;5317;49.048;8.468;2023-03-03T07:58:56;7.50;58.70
10538;DHT22;5317;49.048;8.468;2023-03-03T08:01:35;7.50;58.50
10538;DHT22;5317;49.048;8.468;2023-03-03T08:04:15;7.60;58.40
10538;DHT22;5317;49.048;8.468;2023-03-03T08:06:48;7.60;58.40
10538;DHT22;5317;49.048;8.468;2023-03-03T08:09:37;7.70;58.50
10538;DHT22;5317;49.048;8.468;2023-03-03T08:12:39;7.70;58.40
10538;DHT22;5317;49.048;8.468;2023-03-03T08:15:16;7.80;58.40
10538;DHT22;5317;49.048;8.468;2023-03-03T08:17:44;7.80;58.60
10538;DHT22;5317;49.048;8.468;2023-03-03T08:20:49;7.90;58.50
10538;DHT22;5317;49.048;8.468;2023-03-03T08:23:17;8.00;58.50
10538;DHT22;5317;49.048;8.468;2023-03-03T08:25:45;8.10;58.30
10538;DHT22;5317;49.048;8.468;2023-03-03T08:28:13;8.10;58.10
10538;DHT22;5317;49.048;8.468;2023-03-03T08:30:41;8.20;58.00
10538;DHT22;5317;49.048;8.468;2023-03-03T08:33:08;8.40;57.80
10538;DHT22;5317;49.048;8.468;2023-03-03T08:35:35;8.50;57.70
10538;DHT22;5317;49.048;8.468;2023-03-03T08:38:04;8.70;57.50
10538;DHT22;5317;49.048;8.468;2023-03-03T08:40:31;8.80;57.30
10538;DHT22;5317;49.048;8.468;2023-03-03T08:42:58;9.00;57.10
10538;DHT22;5317;49.048;8.468;2023-03-03T08:45:26;9.10;56.90
10538;DHT22;5317;49.048;8.468;2023-03-03T08:47:54;9.20;56.20
10538;DHT22;5317;49.048;8.468;2023-03-03T08:50:21;9.40;55.90
10538;DHT22;5317;49.048;8.468;2023-03-03T08:52:49;9.50;55.50
10538;DHT22;5317;49.048;8.468;2023-03-03T08:55:17;9.70;55.00
10538;DHT22;5317;49.048;8.468;2023-03-03T08:57:44;9.80;54.70
10538;DHT22;5317;49.048;8.468;2023-03-03T09:00:14;9.90;54.40
10538;DHT22;5317;49.048;8.468;2023-03-03T09:03:00;10.10;53.60
10538;DHT22;5317;49.048;8.468;2023-03-03T09:05:27;10.10;53.60
10538;DHT22;5317;49.048;8.468;2023-03-03T09:07:57;10.20;53.70
10538;DHT22;5317;49.048;8.468;2023-03-03T09:10:32;10.30;53.70
10538;DHT22;5317;49.048;8.468;2023-03-03T09:13:03;10.40;53.50
10538;DHT22;5317;49.048;8.468;2023-03-03T09:15:37;10.40;53.40
10538;DHT22;5317;49.048;8.468;2023-03-03T09:18:17;10.50;53.00
10538;DHT22;5317;49.048;8.468;2023-03-03T09:20:45;10.60;52.90
10538;DHT22;5317;49.048;8.468;2023-03-03T09:23:29;10.70;53.00
10538;DHT22;5317;49.048;8.468;2023-03-03T09:26:24;10.80;52.80
10538;DHT22;5317;49.048;8.468;2023-03-03T09:29:05;10.80;52.60
10538;DHT22;5317;49.048;8.468;2023-03-03T09:31:38;10.80;52.60
10538;DHT22;5317;49.048;8.468;2023-03-03T09:34:21;10.90;52.70
10538;DHT22;5317;49.048;8.468;2023-03-03T09:36:49;11.00;52.60
10538;DHT22;5317;49.048;8.468;2023-03-03T09:39:18;11.10;52.30
10538;DHT22;5317;49.048;8.468;2023-03-03T09:45:25;11.30;52.00
10538;DHT22;5317;49.048;8.468;2023-03-03T09:48:07;11.50;51.70
10538;DHT22;5317;49.048;8.468;2023-03-03T09:50:44;11.70;51.50
10538;DHT22;5317;49.048;8.468;2023-03-03T09:53:20;11.90;51.30
10538;DHT22;5317;49.048;8.468;2023-03-03T09:55:53;12.00;50.80
10538;DHT22;5317;49.048;8.468;2023-03-03T09:58:33;12.10;50.80
10538;DHT22;5317;49.048;8.468;2023-03-03T10:01:19;12.20;50.50
10538;DHT22;5317;49.048;8.468;2023-03-03T10:06:46;12.40;49.70
10538;DHT22;5317;49.048;8.468;2023-03-03T10:09:34;12.40;49.30
10538;DHT22;5317;49.048;8.468;2023-03-03T10:12:10;12.50;49.10
10538;DHT22;5317;49.048;8.468;2023-03-03T10:15:01;12.70;49.00
10538;DHT22;5317;49.048;8.468;2023-03-03T10:17:46;12.80;48.80
10538;DHT22;5317;49.048;8.468;2023-03-03T10:20:35;12.90;48.40
10538;DHT22;5317;49.048;8.468;2023-03-03T10:23:09;13.00;47.70
10538;DHT22;5317;49.048;8.468;2023-03-03T10:25:57;13.00;47.60
10538;DHT22;5317;49.048;8.468;2023-03-03T10:29:01;13.10;47.30
10538;DHT22;5317;49.048;8.468;2023-03-03T10:32:00;13.20;46.90
10538;DHT22;5317;49.048;8.468;2023-03-03T10:35:00;13.30;47.20
10538;DHT22;5317;49.048;8.468;2023-03-03T10:37:33;13.50;46.50
10538;DHT22;5317;49.048;8.468;2023-03-03T10:40:16;13.70;46.40
10538;DHT22;5317;49.048;8.468;2023-03-03T10:43:03;13.80;46.50
10538;DHT22;5317;49.048;8.468;2023-03-03T10:45:44;14.00;46.20
10538;DHT22;5317;49.048;8.468;2023-03-03T10:48:27;14.10;45.80
10538;DHT22;5317;49.048;8.468;2023-03-03T10:51:03;14.30;44.90
10538;DHT22;5317;49.048;8.468;2023-03-03T10:53:42;14.40;45.00
10538;DHT22;5317;49.048;8.468;2023-03-03T10:56:27;14.50;44.80
10538;DHT22;5317;49.048;8.468;2023-03-03T10:59:04;14.70;44.90
10538;DHT22;5317;49.048;8.468;2023-03-03T11:01:52;14.80;44.90
10538;DHT22;5317;49.048;8.468;2023-03-03T11:04:31;15.00;44.40
10538;DHT22;5317;49.048;8.468;2023-03-03T11:07:09;15.10;43.80
10538;DHT22;5317;49.048;8.468;2023-03-03T11:09:47;15.20;44.10
10538;DHT22;5317;49.048;8.468;2023-03-03T11:12:31;15.30;43.10
10538;DHT22;5317;49.048;8.468;2023-03-03T11:17:57;15.50;42.90
10538;DHT22;5317;49.048;8.468;2023-03-03T11:20:35;15.70;43.10
10538;DHT22;5317;49.048;8.468;2023-03-03T11:23:16;15.80;42.50
10538;DHT22;5317;49.048;8.468;2023-03-03T11:25:51;15.80;42.00
10538;DHT22;5317;49.048;8.468;2023-03-03T11:28:30;16.00;42.00
10538;DHT22;5317;49.048;8.468;2023-03-03T11:31:10;16.10;41.70
10538;DHT22;5317;49.048;8.468;2023-03-03T11:33:43;16.20;41.10
10538;DHT22;5317;49.048;8.468;2023-03-03T11:36:19;16.30;41.20
10538;DHT22;5317;49.048;8.468;2023-03-03T11:38:53;16.30;40.80
10538;DHT22;5317;49.048;8.468;2023-03-03T11:41:35;16.40;40.90
10538;DHT22;5317;49.048;8.468;2023-03-03T11:44:10;16.50;40.80
10538;DHT22;5317;49.048;8.468;2023-03-03T11:46:45;16.60;40.50
10538;DHT22;5317;49.048;8.468;2023-03-03T11:49:17;16.60;40.10
10538;DHT22;5317;49.048;8.468;2023-03-03T11:51:52;16.70;40.30
10538;DHT22;5317;49.048;8.468;2023-03-03T11:54:25;16.70;39.80
10538;DHT22;5317;49.048;8.468;2023-03-03T11:56:57;16.80;39.80
10538;DHT22;5317;49.048;8.468;2023-03-03T11:59:43;16.90;39.40
10538;DHT22;5317;49.048;8.468;2023-03-03T12:02:22;17.10;39.40
10538;DHT22;5317;49.048;8.468;2023-03-03T12:04:56;17.20;39.50
10538;DHT22;5317;49.048;8.468;2023-03-03T12:07:31;17.20;39.20
10538;DHT22;5317;49.048;8.468;2023-03-03T12:10:16;17.30;39.20
10538;DHT22;5317;49.048;8.468;2023-03-03T12:12:53;17.50;38.70
10538;DHT22;5317;49.048;8.468;2023-03-03T12:15:32;17.60;39.00
10538;DHT22;5317;49.048;8.468;2023-03-03T12:18:26;17.70;38.90
10538;DHT22;5317;49.048;8.468;2023-03-03T12:21:09;17.80;38.50
10538;DHT22;5317;49.048;8.468;2023-03-03T12:23:59;17.90;38.00
10538;DHT22;5317;49.048;8.468;2023-03-03T12:26:35;18.00;37.80
10538;DHT22;5317;49.048;8.468;2023-03-03T12:29:10;18.10;38.20
10538;DHT22;5317;49.048;8.468;2023-03-03T12:31:46;18.10;37.80
10538;DHT22;5317;49.048;8.468;2023-03-03T12:34:23;18.30;37.60
10538;DHT22;5317;49.048;8.468;2023-03-03T12:39:55;18.50;37.20
10538;DHT22;5317;49.048;8.468;2023-03-03T12:42:34;18.50;36.80
10538;DHT22;5317;49.048;8.468;2023-03-03T12:45:13;18.60;37.20
10538;DHT22;5317;49.048;8.468;2023-03-03T12:47:47;18.70;37.00
10538;DHT22;5317;49.048;8.468;2023-03-03T12:50:26;18.80;37.00
10538;DHT22;5317;49.048;8.468;2023-03-03T12:53:03;19.00;36.50
10538;DHT22;5317;49.048;8.468;2023-03-03T12:55:43;19.10;36.60
10538;DHT22;5317;49.048;8.468;2023-03-03T12:58:24;19.20;36.20
10538;DHT22;5317;49.048;8.468;2023-03-03T13:01:01;19.30;36.40
10538;DHT22;5317;49.048;8.468;2023-03-03T13:03:38;19.40;36.10
10538;DHT22;5317;49.048;8.468;2023-03-03T13:06:13;19.50;36.20
10538;DHT22;5317;49.048;8.468;2023-03-03T13:08:54;19.60;35.70
10538;DHT22;5317;49.048;8.468;2023-03-03T13:11:34;19.80;35.80
10538;DHT22;5317;49.048;8.468;2023-03-03T13:14:14;19.90;35.80
10538;DHT22;5317;49.048;8.468;2023-03-03T13:16:46;20.10;35.40
10538;DHT22;5317;49.048;8.468;2023-03-03T13:19:17;20.20;35.60
10538;DHT22;5317;49.048;8.468;2023-03-03T13:21:49;20.30;35.20
10538;DHT22;5317;49.048;8.468;2023-03-03T13:24:22;20.40;34.50
10538;DHT22;5317;49.048;8.468;2023-03-03T13:26:56;20.50;34.60
10538;DHT22;5317;49.048;8.468;2023-03-03T13:29:26;20.60;34.30
10538;DHT22;5317;49.048;8.468;2023-03-03T13:31:56;20.80;34.40
10538;DHT22;5317;49.048;8.468;2023-03-03T13:34:38;21.00;34.50
10538;DHT22;5317;49.048;8.468;2023-03-03T13:37:11;21.20;34.30
10538;DHT22;5317;49.048;8.468;2023-03-03T13:39:52;21.40;34.10
10538;DHT22;5317;49.048;8.468;2023-03-03T13:42:24;21.70;33.50
10538;DHT22;5317;49.048;8.468;2023-03-03T13:44:54;22.00;33.20
10538;DHT22;5317;49.048;8.468;2023-03-03T13:47:27;22.20;33.20
10538;DHT22;5317;49.048;8.468;2023-03-03T13:50:15;22.60;32.70
10538;DHT22;5317;49.048;8.468;2023-03-03T13:55:34;23.50;31.80
10538;DHT22;5317;49.048;8.468;2023-03-03T13:58:07;24.00;31.30
10538;DHT22;5317;49.048;8.468;2023-03-03T14:00:47;24.70;30.90
10538;DHT22;5317;49.048;8.468;2023-03-03T14:06:06;27.00;29.00
10538;DHT22;5317;49.048;8.468;2023-03-03T14:08:50;28.60;28.50
10538;DHT22;5317;49.048;8.468;2023-03-03T14:11:24;30.20;26.60
10538;DHT22;5317;49.048;8.468;2023-03-03T14:13:59;31.60;26.00
10538;DHT22;5317;49.048;8.468;2023-03-03T14:16:42;32.80;24.70
10538;DHT22;5317;49.048;8.468;2023-03-03T14:19:17;33.80;23.70
10538;DHT22;5317;49.048;8.468;2023-03-03T14:21:55;34.50;23.60
10538;DHT22;5317;49.048;8.468;2023-03-03T14:24:29;34.80;23.10
10538;DHT22;5317;49.048;8.468;2023-03-03T14:26:58;35.20;22.80
10538;DHT22;5317;49.048;8.468;2023-03-03T14:29:31;35.60;22.20
10538;DHT22;5317;49.048;8.468;2023-03-03T14:32:00;35.90;21.30
10538;DHT22;5317;49.048;8.468;2023-03-03T14:34:36;36.30;21.50
10538;DHT22;5317;49.048;8.468;2023-03-03T14:37:24;36.60;21.10
10538;DHT22;5317;49.048;8.468;2023-03-03T14:40:11;36.90;19.90
10538;DHT22;5317;49.048;8.468;2023-03-03T14:42:46;37.20;19.90
10538;DHT22;5317;49.048;8.468;2023-03-03T14:45:20;37.40;20.30
10538;DHT22;5317;49.048;8.468;2023-03-03T14:47:50;37.40;19.90
10538;DHT22;5317;49.048;8.468;2023-03-03T14:50:35;37.60;20.20
10538;DHT22;5317;49.048;8.468;2023-03-03T14:53:09;37.70;19.20
10538;DHT22;5317;49.048;8.468;2023-03-03T14:55:40;37.70;19.60
10538;DHT22;5317;49.048;8.468;2023-03-03T14:58:24;37.60;19.70
10538;DHT22;5317;49.048;8.468;2023-03-03T15:01:12;37.40;19.00
10538;DHT22;5317;49.048;8.468;2023-03-03T15:03:46;37.30;19.30
10538;DHT22;5317;49.048;8.468;2023-03-03T15:06:28;37.20;19.50
10538;DHT22;5317;49.048;8.468;2023-03-03T15:08:56;37.10;19.20
10538;DHT22;5317;49.048;8.468;2023-03-03T15:11:26;36.90;19.90
10538;DHT22;5317;49.048;8.468;2023-03-03T15:14:09;36.80;19.90
10538;DHT22;5317;49.048;8.468;2023-03-03T15:16:37;36.40;19.40
10538;DHT22;5317;49.048;8.468;2023-03-03T15:19:35;36.00;19.90
10538;DHT22;5317;49.048;8.468;2023-03-03T15:22:10;35.30;19.50
10538;DHT22;5317;49.048;8.468;2023-03-03T15:24:41;34.00;20.40
10538;DHT22;5317;49.048;8.468;2023-03-03T15:27:17;32.70;21.10
10538;DHT22;5317;49.048;8.468;2023-03-03T15:29:54;31.30;21.80
10538;DHT22;5317;49.048;8.468;2023-03-03T15:32:28;29.80;22.50
10538;DHT22;5317;49.048;8.468;2023-03-03T15:35:05;28.50;23.40
10538;DHT22;5317;49.048;8.468;2023-03-03T15:37:43;27.40;24.20
10538;DHT22;5317;49.048;8.468;2023-03-03T15:40:21;26.60;24.80
10538;DHT22;5317;49.048;8.468;2023-03-03T15:42:56;26.10;25.40
10538;DHT22;5317;49.048;8.468;2023-03-03T15:45:26;25.60;26.00
10538;DHT22;5317;49.048;8.468;2023-03-03T15:48:18;25.00;27.00
10538;DHT22;5317;49.048;8.468;2023-03-03T15:50:53;24.50;27.00
10538;DHT22;5317;49.048;8.468;2023-03-03T15:53:33;24.10;27.40
10538;DHT22;5317;49.048;8.468;2023-03-03T15:56:12;23.60;27.80
10538;DHT22;5317;49.048;8.468;2023-03-03T16:01:52;22.60;28.50
10538;DHT22;5317;49.048;8.468;2023-03-03T16:04:27;22.10;28.80
10538;DHT22;5317;49.048;8.468;2023-03-03T16:07:03;21.70;29.20
10538;DHT22;5317;49.048;8.468;2023-03-03T16:09:40;21.20;29.60
10538;DHT22;5317;49.048;8.468;2023-03-03T16:12:16;20.70;30.20
10538;DHT22;5317;49.048;8.468;2023-03-03T16:14:56;20.40;30.80
10538;DHT22;5317;49.048;8.468;2023-03-03T16:17:31;20.00;31.30
10538;DHT22;5317;49.048;8.468;2023-03-03T16:20:11;19.60;31.90
10538;DHT22;5317;49.048;8.468;2023-03-03T16:22:54;19.20;32.40
10538;DHT22;5317;49.048;8.468;2023-03-03T16:25:50;18.90;32.90
10538;DHT22;5317;49.048;8.468;2023-03-03T16:28:26;18.70;33.40
10538;DHT22;5317;49.048;8.468;2023-03-03T16:31:04;18.40;33.70
10538;DHT22;5317;49.048;8.468;2023-03-03T16:33:37;18.20;34.20
10538;DHT22;5317;49.048;8.468;2023-03-03T16:36:16;18.00;34.40
10538;DHT22;5317;49.048;8.468;2023-03-03T16:38:52;17.80;34.50
10538;DHT22;5317;49.048;8.468;2023-03-03T16:41:26;17.60;35.00
10538;DHT22;5317;49.048;8.468;2023-03-03T16:44:03;17.40;35.40
10538;DHT22;5317;49.048;8.468;2023-03-03T16:46:32;17.20;35.60
10538;DHT22;5317;49.048;8.468;2023-03-03T16:49:04;17.10;35.70
10538;DHT22;5317;49.048;8.468;2023-03-03T16:51:40;17.00;36.00
10538;DHT22;5317;49.048;8.468;2023-03-03T16:54:17;16.80;36.40